sensor_id;sensor_type;location;lat;lon;timestamp;temperature;humidity
25058;DHT22;13057;50.978;11.034;2023-01-10T00:00:02;6.50;99.90
25058;DHT22;13057;50.978;11.034;2023-01-10T00:02:28;6.50;99.90
25058;DHT22;13057;50.978;11.034;2023-01-10T00:04:54;6.40;99.90
25058;DHT22;13057;50.978;11.034;2023-01-10T00:07:20;6.40;99.90
25058;DHT22;13057;50.978;11.034;2023-01-10T00:09:46;6.40;99.90
25058;DHT22;13057;50.978;11.034;2023-01-10T00:12:11;6.40;99.90
25058;DHT22;13057;50.978;11.034;2023-01-10T00:14:49;6.40;99.90
25058;DHT22;13057;50.978;11.034;2023-01-10T00:17:16;6.40;99.90
25058;DHT22;13057;50.978;11.034;2023-01-10T00:19:43;6.40;99.90
25058;DHT22;13057;50.978;11.034;2023-01-10T00:22:09;6.30;99.90
25058;DHT22;13057;50.978;11.034;2023-01-10T00:24:35;6.30;99.90
25058;DHT22;13057;50.978;11.034;2023-01-10T00:27:01;6.20;99.90
25058;DHT22;13057;50.978;11.034;2023-01-10T00:29:28;6.20;99.90
25058;DHT22;13057;50.978;11.034;2023-01-10T00:31:56;6.20;99.90
25058;DHT22;13057;50.978;11.034;2023-01-10T00:34:22;6.20;99.90
25058;DHT22;13057;50.978;11.034;2023-01-10T00:36:48;6.20;99.90
25058;DHT22;13057;50.978;11.034;2023-01-10T00:39:16;6.20;99.90
25058;DHT22;13057;50.978;11.034;2023-01-10T00:41:44;6.20;99.90
25058;DHT22;13057;50.978;11.034;2023-01-10T00:44:22;6.20;99.90
25058;DHT22;13057;50.978;11.034;2023-01-10T00:46:48;6.20;99.90
25058;DHT22;13057;50.978;11.034;2023-01-10T00:49:14;6.20;99.90
25058;DHT22;13057;50.978;11.034;2023-01-10T00:51:41;6.20;99.90
25058;DHT22;13057;50.978;11.034;2023-01-10T00:54:09;6.20;99.90
25058;DHT22;13057;50.978;11.034;2023-01-10T00:56:35;6.20;99.90
25058;DHT22;13057;50.978;11.034;2023-01-10T00:59:01;6.30;99.90
25058;DHT22;13057;50.978;11.034;2023-01-10T01:01:27;6.30;99.90
25058;DHT22;13057;50.978;11.034;2023-01-10T01:03:53;6.30;99.90
25058;DHT22;13057;50.978;11.034;2023-01-10T01:06:18;6.40;99.90
25058;DHT22;13057;50.978;11.034;2023-01-10T01:08:44;6.40;99.90
25058;DHT22;13057;50.978;11.034;2023-01-10T01:11:10;6.40;99.90
25058;DHT22;13057;50.978;11.034;2023-01-10T01:13:36;6.40;99.90
25058;DHT22;13057;50.978;11.034;2023-01-10T01:16:02;6.40;99.90
25058;DHT22;13057;50.978;11.034;2023-01-10T01:18:28;6.50;99.90
25058;DHT22;13057;50.978;11.034;2023-01-10T01:20:55;6.50;99.90
25058;DHT22;13057;50.978;11.034;2023-01-10T01:23:23;6.60;99.90
25058;DHT22;13057;50.978;11.034;2023-01-10T01:25:50;6.50;99.90
25058;DHT22;13057;50.978;11.034;2023-01-10T01:28:16;6.50;99.90
25058;DHT22;13057;50.978;11.034;2023-01-10T01:30:42;6.50;99.90
25058;DHT22;13057;50.978;11.034;2023-01-10T01:33:08;6.50;99.90
25058;DHT22;13057;50.978;11.034;2023-01-10T01:35:34;6.50;99.90
25058;DHT22;13057;50.978;11.034;2023-01-10T01:38:00;6.50;99.90
25058;DHT22;13057;50.978;11.034;2023-01-10T01:40:25;6.60;99.90
25058;DHT22;13057;50.978;11.034;2023-01-10T01:42:52;6.60;99.90
25058;DHT22;13057;50.978;11.034;2023-01-10T01:45:32;6.60;99.90
25058;DHT22;13057;50.978;11.034;2023-01-10T01:48:07;6.50;99.90
25058;DHT22;13057;50.978;11.034;2023-01-10T01:50:40;6.50;99.90
25058;DHT22;13057;50.978;11.034;2023-01-10T01:53:11;6.50;99.90
25058;DHT22;13057;50.978;11.034;2023-01-10T01:55:39;6.50;99.90
25058;DHT22;13057;50.978;11.034;2023-01-10T01:58:09;6.50;99.90
25058;DHT22;13057;50.978;11.034;2023-01-10T02:00:37;6.40;99.90
25058;DHT22;13057;50.978;11.034;2023-01-10T02:03:04;6.30;99.90
25058;DHT22;13057;50.978;11.034;2023-01-10T02:05:32;6.30;99.90
25058;DHT22;13057;50.978;11.034;2023-01-10T02:08:00;6.30;99.90
25058;DHT22;13057;50.978;11.034;2023-01-10T02:10:41;6.20;99.90
25058;DHT22;13057;50.978;11.034;2023-01-10T02:13:10;6.20;99.90
25058;DHT22;13057;50.978;11.034;2023-01-10T02:15:38;6.20;99.90
25058;DHT22;13057;50.978;11.034;2023-01-10T02:18:04;6.10;99.90
25058;DHT22;13057;50.978;11.034;2023-01-10T02:20:44;6.20;99.90
25058;DHT22;13057;50.978;11.034;2023-01-10T02:23:42;6.20;99.90
25058;DHT22;13057;50.978;11.034;2023-01-10T02:26:33;6.20;99.90
25058;DHT22;13057;50.978;11.034;2023-01-10T02:29:17;6.20;99.90
25058;DHT22;13057;50.978;11.034;2023-01-10T02:32:17;6.20;99.90
25058;DHT22;13057;50.978;11.034;2023-01-10T02:35:07;6.10;99.90
25058;DHT22;13057;50.978;11.034;2023-01-10T02:37:44;6.20;99.90
25058;DHT22;13057;50.978;11.034;2023-01-10T02:40:29;6.20;99.90
25058;DHT22;13057;50.978;11.034;2023-01-10T02:43:11;6.20;99.90
25058;DHT22;13057;50.978;11.034;2023-01-10T02:45:45;6.30;99.90
25058;DHT22;13057;50.978;11.034;2023-01-10T02:48:12;6.30;99.90
25058;DHT22;13057;50.978;11.034;2023-01-10T02:50:51;6.30;99.90
25058;DHT22;13057;50.978;11.034;2023-01-10T02:53:26;6.40;99.90
25058;DHT22;13057;50.978;11.034;2023-01-10T02:56:11;6.40;99.90
25058;DHT22;13057;50.978;11.034;2023-01-10T02:59:02;6.30;99.90
25058;DHT22;13057;50.978;11.034;2023-01-10T03:04:40;6.30;99.90
25058;DHT22;13057;50.978;11.034;2023-01-10T03:07:24;6.30;99.90
25058;DHT22;13057;50.978;11.034;2023-01-10T03:10:09;6.30;99.90
25058;DHT22;13057;50.978;11.034;2023-01-10T03:12:49;6.30;99.90
25058;DHT22;13057;50.978;11.034;2023-01-10T03:15:18;6.30;99.90
25058;DHT22;13057;50.978;11.034;2023-01-10T03:17:48;6.30;99.90
25058;DHT22;13057;50.978;11.034;2023-01-10T03:20:18;6.30;99.90
25058;DHT22;13057;50.978;11.034;2023-01-10T03:22:46;6.30;99.90
25058;DHT22;13057;50.978;11.034;2023-01-10T03:25:14;6.30;99.90
25058;DHT22;13057;50.978;11.034;2023-01-10T03:27:54;6.30;99.90
25058;DHT22;13057;50.978;11.034;2023-01-10T03:30:29;6.30;99.90
25058;DHT22;13057;50.978;11.034;2023-01-10T03:32:57;6.30;99.90
25058;DHT22;13057;50.978;11.034;2023-01-10T03:35:43;6.40;99.90
25058;DHT22;13057;50.978;11.034;2023-01-10T03:38:28;6.50;99.90
25058;DHT22;13057;50.978;11.034;2023-01-10T03:41:10;6.60;99.90
25058;DHT22;13057;50.978;11.034;2023-01-10T03:43:46;6.60;99.90
25058;DHT22;13057;50.978;11.034;2023-01-10T03:46:33;6.70;99.90
25058;DHT22;13057;50.978;11.034;2023-01-10T03:49:03;6.80;99.90
25058;DHT22;13057;50.978;11.034;2023-01-10T03:51:30;6.80;99.90
25058;DHT22;13057;50.978;11.034;2023-01-10T03:53:59;6.80;99.90
25058;DHT22;13057;50.978;11.034;2023-01-10T03:56:26;6.80;99.90
25058;DHT22;13057;50.978;11.034;2023-01-10T03:58:52;6.80;99.90
25058;DHT22;13057;50.978;11.034;2023-01-10T04:01:18;6.90;99.90
25058;DHT22;13057;50.978;11.034;2023-01-10T04:03:43;6.80;99.90
25058;DHT22;13057;50.978;11.034;2023-01-10T04:06:10;6.80;99.90
25058;DHT22;13057;50.978;11.034;2023-01-10T04:08:35;6.80;99.90
25058;DHT22;13057;50.978;11.034;2023-01-10T04:11:01;6.90;99.90
25058;DHT22;13057;50.978;11.034;2023-01-10T04:13:28;6.90;99.90
25058;DHT22;13057;50.978;11.034;2023-01-10T04:15:54;6.90;99.90
25058;DHT22;13057;50.978;11.034;2023-01-10T04:18:20;7.00;99.90
25058;DHT22;13057;50.978;11.034;2023-01-10T04:20:46;7.00;99.90
25058;DHT22;13057;50.978;11.034;2023-01-10T04:23:12;6.90;99.90
25058;DHT22;13057;50.978;11.034;2023-01-10T04:25:38;6.90;99.90
25058;DHT22;13057;50.978;11.034;2023-01-10T04:28:04;6.90;99.90
25058;DHT22;13057;50.978;11.034;2023-01-10T04:30:30;6.90;99.90
25058;DHT22;13057;50.978;11.034;2023-01-10T04:32:56;6.90;99.90
25058;DHT22;13057;50.978;11.034;2023-01-10T04:35:22;6.80;99.90
25058;DHT22;13057;50.978;11.034;2023-01-10T04:37:47;6.80;99.90
25058;DHT22;13057;50.978;11.034;2023-01-10T04:40:13;6.80;99.90
25058;DHT22;13057;50.978;11.034;2023-01-10T04:42:42;6.80;99.90
25058;DHT22;13057;50.978;11.034;2023-01-10T04:45:08;6.70;99.90
25058;DHT22;13057;50.978;11.034;2023-01-10T04:47:36;6.70;99.90
25058;DHT22;13057;50.978;11.034;2023-01-10T04:50:02;6.80;99.90
25058;DHT22;13057;50.978;11.034;2023-01-10T04:52:28;6.80;99.90
25058;DHT22;13057;50.978;11.034;2023-01-10T04:54:54;6.80;99.90
25058;DHT22;13057;50.978;11.034;2023-01-10T04:57:19;6.70;99.90
25058;DHT22;13057;50.978;11.034;2023-01-10T04:59:45;6.60;99.90
25058;DHT22;13057;50.978;11.034;2023-01-10T05:02:12;6.60;99.90
25058;DHT22;13057;50.978;11.034;2023-01-10T05:04:40;6.60;99.90
25058;DHT22;13057;50.978;11.034;2023-01-10T05:07:06;6.60;99.90
25058;DHT22;13057;50.978;11.034;2023-01-10T05:09:32;6.60;99.90
25058;DHT22;13057;50.978;11.034;2023-01-10T05:11:58;6.50;99.90
25058;DHT22;13057;50.978;11.034;2023-01-10T05:14:24;6.50;99.90
25058;DHT22;13057;50.978;11.034;2023-01-10T05:16:49;6.40;99.90
25058;DHT22;13057;50.978;11.034;2023-01-10T05:19:16;6.40;99.90
25058;DHT22;13057;50.978;11.034;2023-01-10T05:21:41;6.50;99.90
25058;DHT22;13057;50.978;11.034;2023-01-10T05:24:08;6.50;99.90
25058;DHT22;13057;50.978;11.034;2023-01-10T05:26:34;6.50;99.90
25058;DHT22;13057;50.978;11.034;2023-01-10T05:29:00;6.60;99.90
25058;DHT22;13057;50.978;11.034;2023-01-10T05:31:26;6.60;99.90
25058;DHT22;13057;50.978;11.034;2023-01-10T05:33:51;6.60;99.90
25058;DHT22;13057;50.978;11.034;2023-01-10T05:36:18;6.60;99.90
25058;DHT22;13057;50.978;11.034;2023-01-10T05:38:44;6.70;99.90
25058;DHT22;13057;50.978;11.034;2023-01-10T05:41:10;6.70;99.90
25058;DHT22;13057;50.978;11.034;2023-01-10T05:43:36;6.80;99.90
25058;DHT22;13057;50.978;11.034;2023-01-10T05:46:02;6.80;99.90
25058;DHT22;13057;50.978;11.034;2023-01-10T05:48:29;6.90;99.90
25058;DHT22;13057;50.978;11.034;2023-01-10T05:50:55;6.80;99.90
25058;DHT22;13057;50.978;11.034;2023-01-10T05:53:22;6.60;99.90
25058;DHT22;13057;50.978;11.034;2023-01-10T05:55:53;6.60;99.90
25058;DHT22;13057;50.978;11.034;2023-01-10T05:58:19;6.60;99.90
25058;DHT22;13057;50.978;11.034;2023-01-10T06:00:46;6.50;99.90
25058;DHT22;13057;50.978;11.034;2023-01-10T06:03:12;6.50;99.90
25058;DHT22;13057;50.978;11.034;2023-01-10T06:05:39;6.50;99.90
25058;DHT22;13057;50.978;11.034;2023-01-10T06:08:04;6.40;99.90
25058;DHT22;13057;50.978;11.034;2023-01-10T06:10:30;6.40;99.90
25058;DHT22;13057;50.978;11.034;2023-01-10T06:12:56;6.30;99.90
25058;DHT22;13057;50.978;11.034;2023-01-10T06:15:22;6.30;99.90
25058;DHT22;13057;50.978;11.034;2023-01-10T06:17:48;6.30;99.90
25058;DHT22;13057;50.978;11.034;2023-01-10T06:20:14;6.30;99.90
25058;DHT22;13057;50.978;11.034;2023-01-10T06:22:41;6.30;99.90
25058;DHT22;13057;50.978;11.034;2023-01-10T06:25:09;6.20;99.90
25058;DHT22;13057;50.978;11.034;2023-01-10T06:27:35;6.20;99.90
25058;DHT22;13057;50.978;11.034;2023-01-10T06:30:02;6.20;99.90
25058;DHT22;13057;50.978;11.034;2023-01-10T06:32:28;6.20;99.90
25058;DHT22;13057;50.978;11.034;2023-01-10T06:34:54;6.10;99.90
25058;DHT22;13057;50.978;11.034;2023-01-10T06:37:20;6.10;99.90
25058;DHT22;13057;50.978;11.034;2023-01-10T06:39:46;6.10;99.90
25058;DHT22;13057;50.978;11.034;2023-01-10T06:42:12;6.00;99.90
25058;DHT22;13057;50.978;11.034;2023-01-10T06:44:39;6.10;99.90
25058;DHT22;13057;50.978;11.034;2023-01-10T06:47:04;6.10;99.90
25058;DHT22;13057;50.978;11.034;2023-01-10T06:49:30;6.10;99.90
25058;DHT22;13057;50.978;11.034;2023-01-10T06:51:56;6.10;99.90
25058;DHT22;13057;50.978;11.034;2023-01-10T06:54:22;6.10;99.90
25058;DHT22;13057;50.978;11.034;2023-01-10T06:56:48;6.10;99.90
25058;DHT22;13057;50.978;11.034;2023-01-10T06:59:14;6.10;99.90
25058;DHT22;13057;50.978;11.034;2023-01-10T07:01:40;6.10;99.90
25058;DHT22;13057;50.978;11.034;2023-01-10T07:04:06;6.10;99.90
25058;DHT22;13057;50.978;11.034;2023-01-10T07:06:36;6.10;99.90
25058;DHT22;13057;50.978;11.034;2023-01-10T07:09:03;6.00;99.90
25058;DHT22;13057;50.978;11.034;2023-01-10T07:11:28;6.10;99.90
25058;DHT22;13057;50.978;11.034;2023-01-10T07:13:55;6.00;99.90
25058;DHT22;13057;50.978;11.034;2023-01-10T07:16:20;5.90;99.90
25058;DHT22;13057;50.978;11.034;2023-01-10T07:18:46;5.80;99.90
25058;DHT22;13057;50.978;11.034;2023-01-10T07:21:12;5.90;99.90
25058;DHT22;13057;50.978;11.034;2023-01-10T07:23:38;5.80;99.90
25058;DHT22;13057;50.978;11.034;2023-01-10T07:26:07;5.80;99.90
25058;DHT22;13057;50.978;11.034;2023-01-10T07:28:34;5.80;99.90
25058;DHT22;13057;50.978;11.034;2023-01-10T07:31:01;5.80;99.90
25058;DHT22;13057;50.978;11.034;2023-01-10T07:33:28;5.70;99.90
25058;DHT22;13057;50.978;11.034;2023-01-10T07:35:54;5.70;99.90
25058;DHT22;13057;50.978;11.034;2023-01-10T07:38:20;5.70;99.90
25058;DHT22;13057;50.978;11.034;2023-01-10T07:40:46;5.70;99.90
25058;DHT22;13057;50.978;11.034;2023-01-10T07:43:12;5.70;99.90
25058;DHT22;13057;50.978;11.034;2023-01-10T07:45:38;5.70;99.90
25058;DHT22;13057;50.978;11.034;2023-01-10T07:48:04;5.70;99.90
25058;DHT22;13057;50.978;11.034;2023-01-10T07:50:33;5.80;99.90
25058;DHT22;13057;50.978;11.034;2023-01-10T07:53:01;5.80;99.90
25058;DHT22;13057;50.978;11.034;2023-01-10T07:55:51;5.90;99.90
25058;DHT22;13057;50.978;11.034;2023-01-10T07:58:36;5.90;99.90
25058;DHT22;13057;50.978;11.034;2023-01-10T08:01:12;6.00;99.90
25058;DHT22;13057;50.978;11.034;2023-01-10T08:03:39;5.90;99.90
25058;DHT22;13057;50.978;11.034;2023-01-10T08:06:10;5.90;99.90
25058;DHT22;13057;50.978;11.034;2023-01-10T08:08:51;5.90;99.90
25058;DHT22;13057;50.978;11.034;2023-01-10T08:11:18;5.90;99.90
25058;DHT22;13057;50.978;11.034;2023-01-10T08:13:45;5.90;99.90
25058;DHT22;13057;50.978;11.034;2023-01-10T08:16:22;6.00;99.90
25058;DHT22;13057;50.978;11.034;2023-01-10T08:18:49;6.00;99.90
25058;DHT22;13057;50.978;11.034;2023-01-10T08:21:16;6.10;99.90
25058;DHT22;13057;50.978;11.034;2023-01-10T08:23:43;6.30;99.90
25058;DHT22;13057;50.978;11.034;2023-01-10T08:26:09;6.40;99.90
25058;DHT22;13057;50.978;11.034;2023-01-10T08:28:36;6.50;99.90
25058;DHT22;13057;50.978;11.034;2023-01-10T08:31:14;6.50;99.90
25058;DHT22;13057;50.978;11.034;2023-01-10T08:33:52;6.60;99.90
25058;DHT22;13057;50.978;11.034;2023-01-10T08:36:34;6.50;99.90
25058;DHT22;13057;50.978;11.034;2023-01-10T08:39:04;6.50;99.90
25058;DHT22;13057;50.978;11.034;2023-01-10T08:41:31;6.60;99.90
25058;DHT22;13057;50.978;11.034;2023-01-10T08:43:57;6.60;99.90
25058;DHT22;13057;50.978;11.034;2023-01-10T08:46:24;6.70;99.90
25058;DHT22;13057;50.978;11.034;2023-01-10T08:48:51;6.80;99.90
25058;DHT22;13057;50.978;11.034;2023-01-10T08:51:19;6.80;99.90
25058;DHT22;13057;50.978;11.034;2023-01-10T08:53:46;6.90;99.90
25058;DHT22;13057;50.978;11.034;2023-01-10T08:56:13;6.90;99.90
25058;DHT22;13057;50.978;11.034;2023-01-10T08:58:39;7.00;99.90
25058;DHT22;13057;50.978;11.034;2023-01-10T09:01:07;7.00;99.90
25058;DHT22;13057;50.978;11.034;2023-01-10T09:03:34;7.10;99.90
25058;DHT22;13057;50.978;11.034;2023-01-10T09:06:02;7.10;99.90
25058;DHT22;13057;50.978;11.034;2023-01-10T09:08:29;7.20;99.90
25058;DHT22;13057;50.978;11.034;2023-01-10T09:10:58;7.20;99.90
25058;DHT22;13057;50.978;11.034;2023-01-10T09:13:26;7.30;99.90
25058;DHT22;13057;50.978;11.034;2023-01-10T09:15:54;7.30;99.90
25058;DHT22;13057;50.978;11.034;2023-01-10T09:18:22;7.30;99.90
25058;DHT22;13057;50.978;11.034;2023-01-10T09:20:49;7.30;99.90
25058;DHT22;13057;50.978;11.034;2023-01-10T09:23:19;7.30;99.90
25058;DHT22;13057;50.978;11.034;2023-01-10T09:25:48;7.30;99.90
25058;DHT22;13057;50.978;11.034;2023-01-10T09:28:16;7.40;99.90
25058;DHT22;13057;50.978;11.034;2023-01-10T09:30:43;7.40;99.90
25058;DHT22;13057;50.978;11.034;2023-01-10T09:33:11;7.50;99.90
25058;DHT22;13057;50.978;11.034;2023-01-10T09:35:40;7.60;99.90
25058;DHT22;13057;50.978;11.034;2023-01-10T09:38:11;7.60;99.90
25058;DHT22;13057;50.978;11.034;2023-01-10T09:43:50;7.60;99.90
25058;DHT22;13057;50.978;11.034;2023-01-10T09:46:49;7.70;99.90
25058;DHT22;13057;50.978;11.034;2023-01-10T09:49:43;7.70;99.90
25058;DHT22;13057;50.978;11.034;2023-01-10T09:52:21;7.70;99.90
25058;DHT22;13057;50.978;11.034;2023-01-10T09:54:51;7.80;99.90
25058;DHT22;13057;50.978;11.034;2023-01-10T09:57:20;7.80;99.90
25058;DHT22;13057;50.978;11.034;2023-01-10T09:59:50;8.00;99.90
25058;DHT22;13057;50.978;11.034;2023-01-10T10:02:33;8.10;99.90
25058;DHT22;13057;50.978;11.034;2023-01-10T10:05:11;8.20;99.90
25058;DHT22;13057;50.978;11.034;2023-01-10T10:07:38;8.20;99.90
25058;DHT22;13057;50.978;11.034;2023-01-10T10:10:11;8.20;99.90
25058;DHT22;13057;50.978;11.034;2023-01-10T10:12:47;8.20;99.90
25058;DHT22;13057;50.978;11.034;2023-01-10T10:15:23;8.20;99.90
25058;DHT22;13057;50.978;11.034;2023-01-10T10:18:07;8.10;99.90
25058;DHT22;13057;50.978;11.034;2023-01-10T10:21:00;8.10;99.90
25058;DHT22;13057;50.978;11.034;2023-01-10T10:23:39;8.10;99.90
25058;DHT22;13057;50.978;11.034;2023-01-10T10:26:33;8.10;99.90
25058;DHT22;13057;50.978;11.034;2023-01-10T10:29:24;8.20;99.90
25058;DHT22;13057;50.978;11.034;2023-01-10T10:32:15;8.30;99.90
25058;DHT22;13057;50.978;11.034;2023-01-10T10:34:59;8.30;99.90
25058;DHT22;13057;50.978;11.034;2023-01-10T10:37:31;8.30;99.90
25058;DHT22;13057;50.978;11.034;2023-01-10T10:40:03;8.30;99.90
25058;DHT22;13057;50.978;11.034;2023-01-10T10:42:33;8.40;99.90
25058;DHT22;13057;50.978;11.034;2023-01-10T10:45:05;8.40;99.90
25058;DHT22;13057;50.978;11.034;2023-01-10T10:47:34;8.40;99.90
25058;DHT22;13057;50.978;11.034;2023-01-10T10:52:56;8.40;99.90
25058;DHT22;13057;50.978;11.034;2023-01-10T10:55:30;8.50;99.90
25058;DHT22;13057;50.978;11.034;2023-01-10T10:57:57;8.50;99.90
25058;DHT22;13057;50.978;11.034;2023-01-10T11:00:23;8.60;99.90
25058;DHT22;13057;50.978;11.034;2023-01-10T11:02:54;8.70;99.90
25058;DHT22;13057;50.978;11.034;2023-01-10T11:05:36;8.70;99.90
25058;DHT22;13057;50.978;11.034;2023-01-10T11:08:06;8.60;99.90
25058;DHT22;13057;50.978;11.034;2023-01-10T11:10:41;8.70;99.90
25058;DHT22;13057;50.978;11.034;2023-01-10T11:13:26;8.70;99.90
25058;DHT22;13057;50.978;11.034;2023-01-10T11:15:54;8.70;99.90
25058;DHT22;13057;50.978;11.034;2023-01-10T11:18:24;8.70;99.90
25058;DHT22;13057;50.978;11.034;2023-01-10T11:20:57;8.80;99.90
25058;DHT22;13057;50.978;11.034;2023-01-10T11:23:36;9.00;99.90
25058;DHT22;13057;50.978;11.034;2023-01-10T11:26:06;9.00;99.90
25058;DHT22;13057;50.978;11.034;2023-01-10T11:28:34;9.00;99.90
25058;DHT22;13057;50.978;11.034;2023-01-10T11:31:02;9.00;99.90
25058;DHT22;13057;50.978;11.034;2023-01-10T11:33:31;9.00;99.90
25058;DHT22;13057;50.978;11.034;2023-01-10T11:36:04;9.00;99.90
25058;DHT22;13057;50.978;11.034;2023-01-10T11:38:31;9.00;99.90
25058;DHT22;13057;50.978;11.034;2023-01-10T11:41:05;9.00;99.90
25058;DHT22;13057;50.978;11.034;2023-01-10T11:43:37;9.10;99.90
25058;DHT22;13057;50.978;11.034;2023-01-10T11:46:15;9.10;99.90
25058;DHT22;13057;50.978;11.034;2023-01-10T11:48:48;9.00;99.90
25058;DHT22;13057;50.978;11.034;2023-01-10T11:51:22;9.00;99.90
25058;DHT22;13057;50.978;11.034;2023-01-10T11:53:56;9.00;99.90
25058;DHT22;13057;50.978;11.034;2023-01-10T11:56:28;9.00;99.90
25058;DHT22;13057;50.978;11.034;2023-01-10T11:58:57;9.00;99.90
25058;DHT22;13057;50.978;11.034;2023-01-10T12:01:28;9.00;99.90
25058;DHT22;13057;50.978;11.034;2023-01-10T12:03:55;9.00;99.90
25058;DHT22;13057;50.978;11.034;2023-01-10T12:06:21;9.00;99.90
25058;DHT22;13057;50.978;11.034;2023-01-10T12:08:47;9.00;99.90
25058;DHT22;13057;50.978;11.034;2023-01-10T12:11:31;8.90;99.90
25058;DHT22;13057;50.978;11.034;2023-01-10T12:13:59;9.00;99.90
25058;DHT22;13057;50.978;11.034;2023-01-10T12:16:27;9.00;99.90
25058;DHT22;13057;50.978;11.034;2023-01-10T12:18:56;9.00;99.90
25058;DHT22;13057;50.978;11.034;2023-01-10T12:21:40;9.00;99.90
25058;DHT22;13057;50.978;11.034;2023-01-10T12:24:13;9.00;99.90
25058;DHT22;13057;50.978;11.034;2023-01-10T12:26:40;9.00;99.90
25058;DHT22;13057;50.978;11.034;2023-01-10T12:29:16;9.10;99.90
25058;DHT22;13057;50.978;11.034;2023-01-10T12:31:44;9.10;99.90
25058;DHT22;13057;50.978;11.034;2023-01-10T12:34:19;9.10;99.90
25058;DHT22;13057;50.978;11.034;2023-01-10T12:37:04;9.10;99.90
25058;DHT22;13057;50.978;11.034;2023-01-10T12:39:39;9.10;99.90
25058;DHT22;13057;50.978;11.034;2023-01-10T12:42:24;9.00;99.90
25058;DHT22;13057;50.978;11.034;2023-01-10T12:45:13;9.10;99.90
25058;DHT22;13057;50.978;11.034;2023-01-10T12:48:04;9.00;99.90
25058;DHT22;13057;50.978;11.034;2023-01-10T12:50:38;9.00;99.90
25058;DHT22;13057;50.978;11.034;2023-01-10T12:53:20;9.00;99.90
25058;DHT22;13057;50.978;11.034;2023-01-10T12:55:51;9.00;99.90
25058;DHT22;13057;50.978;11.034;2023-01-10T12:58:27;9.00;99.90
25058;DHT22;13057;50.978;11.034;2023-01-10T13:00:58;9.00;99.90
25058;DHT22;13057;50.978;11.034;2023-01-10T13:03:30;9.00;99.90
25058;DHT22;13057;50.978;11.034;2023-01-10T13:05:57;8.90;99.90
25058;DHT22;13057;50.978;11.034;2023-01-10T13:08:27;8.90;99.90
25058;DHT22;13057;50.978;11.034;2023-01-10T13:10:57;9.00;99.90
25058;DHT22;13057;50.978;11.034;2023-01-10T13:13:35;9.00;99.90
25058;DHT22;13057;50.978;11.034;2023-01-10T13:16:21;8.90;99.90
25058;DHT22;13057;50.978;11.034;2023-01-10T13:19:02;8.90;99.90
25058;DHT22;13057;50.978;11.034;2023-01-10T13:21:30;9.00;99.90
25058;DHT22;13057;50.978;11.034;2023-01-10T13:24:02;9.00;99.90
25058;DHT22;13057;50.978;11.034;2023-01-10T13:26:47;9.00;99.90
25058;DHT22;13057;50.978;11.034;2023-01-10T13:29:20;9.00;99.90
25058;DHT22;13057;50.978;11.034;2023-01-10T13:31:47;9.10;99.90
25058;DHT22;13057;50.978;11.034;2023-01-10T13:34:17;9.10;99.90
25058;DHT22;13057;50.978;11.034;2023-01-10T13:36:55;9.10;99.90
25058;DHT22;13057;50.978;11.034;2023-01-10T13:39:39;9.10;99.90
25058;DHT22;13057;50.978;11.034;2023-01-10T13:42:21;9.10;99.90
25058;DHT22;13057;50.978;11.034;2023-01-10T13:45:16;9.00;99.90
25058;DHT22;13057;50.978;11.034;2023-01-10T13:47:58;9.00;99.90
25058;DHT22;13057;50.978;11.034;2023-01-10T13:50:47;9.00;99.90
25058;DHT22;13057;50.978;11.034;2023-01-10T13:53:39;9.00;99.90
25058;DHT22;13057;50.978;11.034;2023-01-10T13:56:27;8.90;99.90
25058;DHT22;13057;50.978;11.034;2023-01-10T13:58:53;9.00;99.90
25058;DHT22;13057;50.978;11.034;2023-01-10T14:01:35;9.10;99.90
25058;DHT22;13057;50.978;11.034;2023-01-10T14:04:30;9.10;99.90
25058;DHT22;13057;50.978;11.034;2023-01-10T14:07:05;9.10;99.90
25058;DHT22;13057;50.978;11.034;2023-01-10T14:09:42;9.00;99.90
25058;DHT22;13057;50.978;11.034;2023-01-10T14:12:21;9.00;99.90
25058;DHT22;13057;50.978;11.034;2023-01-10T14:14:53;8.90;99.90
25058;DHT22;13057;50.978;11.034;2023-01-10T14:17:24;8.80;99.90
25058;DHT22;13057;50.978;11.034;2023-01-10T14:20:13;8.80;99.90
25058;DHT22;13057;50.978;11.034;2023-01-10T14:22:55;8.70;99.90
25058;DHT22;13057;50.978;11.034;2023-01-10T14:25:22;8.70;99.90
25058;DHT22;13057;50.978;11.034;2023-01-10T14:27:51;8.70;99.90
25058;DHT22;13057;50.978;11.034;2023-01-10T14:30:26;8.70;99.90
25058;DHT22;13057;50.978;11.034;2023-01-10T14:32:55;8.70;99.90
25058;DHT22;13057;50.978;11.034;2023-01-10T14:35:31;8.60;99.90
25058;DHT22;13057;50.978;11.034;2023-01-10T14:38:01;8.60;99.90
25058;DHT22;13057;50.978;11.034;2023-01-10T14:40:34;8.50;99.90
25058;DHT22;13057;50.978;11.034;2023-01-10T14:43:08;8.50;99.90
25058;DHT22;13057;50.978;11.034;2023-01-10T14:45:49;8.40;99.90
25058;DHT22;13057;50.978;11.034;2023-01-10T14:48:24;8.30;99.90
25058;DHT22;13057;50.978;11.034;2023-01-10T14:50:52;8.30;99.90
25058;DHT22;13057;50.978;11.034;2023-01-10T14:53:28;8.30;99.90
25058;DHT22;13057;50.978;11.034;2023-01-10T14:55:54;8.30;99.90
25058;DHT22;13057;50.978;11.034;2023-01-10T14:58:21;8.30;99.90
25058;DHT22;13057;50.978;11.034;2023-01-10T15:00:49;8.30;99.90
25058;DHT22;13057;50.978;11.034;2023-01-10T15:03:18;8.30;99.90
25058;DHT22;13057;50.978;11.034;2023-01-10T15:05:47;8.30;99.90
25058;DHT22;13057;50.978;11.034;2023-01-10T15:08:20;8.30;99.90
25058;DHT22;13057;50.978;11.034;2023-01-10T15:10:46;8.30;99.90
25058;DHT22;13057;50.978;11.034;2023-01-10T15:13:18;8.40;99.90
25058;DHT22;13057;50.978;11.034;2023-01-10T15:15:46;8.40;99.90
25058;DHT22;13057;50.978;11.034;2023-01-10T15:18:41;8.40;99.90
25058;DHT22;13057;50.978;11.034;2023-01-10T15:21:11;8.40;99.90
25058;DHT22;13057;50.978;11.034;2023-01-10T15:23:39;8.40;99.90
25058;DHT22;13057;50.978;11.034;2023-01-10T15:26:10;8.30;99.90
25058;DHT22;13057;50.978;11.034;2023-01-10T15:28:39;8.40;99.90
25058;DHT22;13057;50.978;11.034;2023-01-10T15:31:07;8.40;99.90
25058;DHT22;13057;50.978;11.034;2023-01-10T15:33:36;8.30;99.90
25058;DHT22;13057;50.978;11.034;2023-01-10T15:36:05;8.40;99.90
25058;DHT22;13057;50.978;11.034;2023-01-10T15:38:34;8.30;99.90
25058;DHT22;13057;50.978;11.034;2023-01-10T15:41:04;8.30;99.90
25058;DHT22;13057;50.978;11.034;2023-01-10T15:43:34;8.40;99.90
25058;DHT22;13057;50.978;11.034;2023-01-10T15:46:02;8.30;99.90
25058;DHT22;13057;50.978;11.034;2023-01-10T15:48:32;8.30;99.90
25058;DHT22;13057;50.978;11.034;2023-01-10T15:51:14;8.30;99.90
25058;DHT22;13057;50.978;11.034;2023-01-10T15:54:01;8.30;99.90
25058;DHT22;13057;50.978;11.034;2023-01-10T15:56:38;8.30;99.90
25058;DHT22;13057;50.978;11.034;2023-01-10T15:59:22;8.30;99.90
25058;DHT22;13057;50.978;11.034;2023-01-10T16:01:53;8.40;99.90
25058;DHT22;13057;50.978;11.034;2023-01-10T16:04:23;8.30;99.90